Aérodrome :
LOGIN :

S'inscrire | Disclaimer

   EN    FR    IT 

 










Légende :    VFR   VFR Marginal   IFR   IFR Intensif   IFR Très Intensif
Visi : 
Plafond : 
>= 8 km
>= 3000ft
5 à 8 km
1000 à 3000 ft
1500m à 5 km
500 à 1000 ft
800 à 1500m
200 à 500 ft
< 800m
< 200 ft
Symboles :   Orages  Brouillard  Fortes neiges  Fortes précipitations  Vent > 20 kt
SIGMETs :   Divers  Orages  Givrage  Turbulence  Onde Orograph.  Cendres Volcan.







- Altitude de l'aérodrome : 12 ft
- Code IATA : BCN


LEBL - Barcelone

DERNIER METAR :
  • 261830Z 23008KT 9999 FEW030 21/11 Q1013 NOSIG

METARs EXPIRÉS :
  • 261800Z 20005KT 9999 FEW030 21/12 Q1013 NOSIG
  • 261730Z 23006KT 9999 FEW030 20/13 Q1014 NOSIG
  • 261700Z 22005KT 9999 FEW030 20/13 Q1013 NOSIG
  • 261630Z 21007KT 9999 FEW030 20/13 Q1014 NOSIG
  • 261600Z 21006KT 9999 FEW030 20/13 Q1014 NOSIG

TAF TAF LEBL
Valide du 26 à 18h jusqu'au 27 à 18h UTC


261700Z 2618/2718 25009KT 9999 FEW030 TX23/2712Z TN15/2706Z
PROB30
TEMPO 2618/2621 SHRA FEW030TCU
BECMG 2622/2624 33007KT
PROB30
TEMPO 2705/2709 33012G22KT
BECMG 2709/2711 13008KT
Pas de NOTAMs connus pour ce terrain.
1 SIGMET publié pour la FIR Barcelona (LECB) :
 
Turbulence forte
LECB SIGMET 1 VALID 261900/262300 LEVA
LECB BARCELONA UIR SEV TURB OBS AT 1833Z E OF LINE N4207 E00401 - N3825 E00258 FL250/320 MOV SSW 10KT NC=



MET'MAP, la Météo Aéronautique d'un coup d'oeil ! - Copyright ORBIFLY Décembre 2007 - Disclaimer

ORBIFLY MET'MAP TEAM :

Programmation & Développement : Alexandra Zaïnal
Conception & Développement : Baudouin d'Aumeries
Co-Programmation & Développement : Marc-Olivier Méhu
Soutien technique & logistique : Manuel Goepfert

Contact : metmap@orbifly.com




SOURCES & CREDITS :

   NOAA